Blake Denton — WDC7496 — position and weather

sailwx.info

Track history (hours):
 
Tides and Currents Weather Stations Pressure Air Temp Water Temp Dewpoint Dewpoint Depression Visibility Wind Speed Wind Dir Waves Ship Positions

Blake Denton

Owner: Marquette Transportation, Paducah, KY. More information available from US FCC via Universal Licensing System and Coast Guard Vessel Documentation Center.

Last reported at 2014-Nov-11 13:16 UTC. Time now 2014-Nov-24 16:22 UTC.
Position N 29°56' W 090°21'.
Warning: this ship's position is 13 days out of date.

Length 52 m; draft 3.4 m.

Type: Towing. MMSI: 367072210.

Date/timePositionNaut miles runAvg speedWind from/ knotsBaromVisibWave heightAir tempDewpointWater temp
2014-Nov-11 13:16N 29°56' W 090°21'1 1.1
2014-Nov-11 12:32N 29°56' W 090°22'6 5.4
2014-Nov-11 11:31N 29°60' W 090°27'2 0.7
2014-Nov-11 08:19N 30°02' W 090°28'5 0.3
2014-Nov-10 14:14N 30°03' W 090°34'0 0.0
2014-Nov-10 13:15N 30°03' W 090°34'0 0.0
2014-Nov-10 12:30N 30°03' W 090°34'0 0.0
2014-Nov-10 11:30N 30°03' W 090°34'0 0.0
2014-Nov-10 10:33N 30°03' W 090°34'0 0.0
2014-Nov-10 09:33N 30°03' W 090°34'0 0.0
2014-Nov-10 08:14N 30°03' W 090°34'1 0.6
2014-Nov-10 07:06N 30°03' W 090°35'9 5.5
2014-Nov-10 05:30N 30°01' W 090°45'  
Track history (hours):
 
Tides and Currents Weather Stations Pressure Air Temp Water Temp Dewpoint Dewpoint Depression Visibility Wind Speed Wind Dir Waves Ship Positions

Blake Denton

Owner: Marquette Transportation, Paducah, KY. More information available from US FCC via Universal Licensing System and Coast Guard Vessel Documentation Center.

Last reported at 2014-Nov-11 13:16 UTC. Time now 2014-Nov-24 16:22 UTC.
Position N 29°56' W 090°21'.
Warning: this ship's position is 13 days out of date.

Length 52 m; draft 3.4 m.

Type: Towing. MMSI: 367072210.

Date/timePositionNaut miles runAvg speedWind from/ knotsBaromVisibWave heightAir tempDewpointWater temp
2014-Nov-11 13:16N 29°56' W 090°21'1 1.1
2014-Nov-11 12:32N 29°56' W 090°22'6 5.4
2014-Nov-11 11:31N 29°60' W 090°27'2 0.7
2014-Nov-11 08:19N 30°02' W 090°28'5 0.3
2014-Nov-10 14:14N 30°03' W 090°34'0 0.0
2014-Nov-10 13:15N 30°03' W 090°34'0 0.0
2014-Nov-10 12:30N 30°03' W 090°34'0 0.0
2014-Nov-10 11:30N 30°03' W 090°34'0 0.0
2014-Nov-10 10:33N 30°03' W 090°34'0 0.0
2014-Nov-10 09:33N 30°03' W 090°34'0 0.0
2014-Nov-10 08:14N 30°03' W 090°34'1 0.6
2014-Nov-10 07:06N 30°03' W 090°35'9 5.5
2014-Nov-10 05:30N 30°01' W 090°45'  

Dump ship's entire track history